Time;durP1;ratioP1;P1;durP2;ratioP2;P2;SDS_P1;SDS_P2;PMS_P1;PMS_P2;Temp;Humidity;BMP_temperature;BMP_pressure;BME280_temperature;BME280_humidity;BME280_pressure;Samples;Min_cycle;Max_cycle;Signal;HPM_P1;HPM_P2
2022/03/05 00:01:17;;;;;;;57.92;25.40;;;3.10;90.20;;;0.45;92.61;101035.16;4973324;28;20045;-85
2022/03/05 00:03:45;;;;;;;51.50;25.02;;;3.10;90.20;;;0.38;93.16;101030.25;4962866;28;20047;-85
2022/03/05 00:06:12;;;;;;;48.83;23.77;;;3.10;90.30;;;0.38;93.01;101032.03;4963282;28;20118;-85
2022/03/05 00:08:39;;;;;;;51.47;25.10;;;3.10;90.20;;;0.24;92.69;101033.00;4974165;28;20047;-85
2022/03/05 00:11:06;;;;;;;58.60;24.58;;;3.10;90.00;;;0.17;93.50;101037.06;4971923;28;20467;-85
2022/03/05 00:13:36;;;;;;;53.60;26.00;;;3.10;90.10;;;0.08;93.45;101029.69;4973884;28;20039;-85
2022/03/05 00:16:04;;;;;;;48.85;24.88;;;3.00;89.90;;;-0.01;93.61;101032.00;4967257;28;20043;-84
2022/03/05 00:18:32;;;;;;;50.83;24.35;;;3.00;89.80;;;-0.06;93.91;101039.50;4954739;28;20474;-85
2022/03/05 00:20:59;;;;;;;53.60;25.92;;;2.90;89.90;;;-0.04;94.64;101040.25;4960554;28;20431;-85
2022/03/05 00:23:26;;;;;;;56.97;25.23;;;2.90;90.20;;;0.00;94.56;101035.56;4973630;28;20404;-84
2022/03/05 00:25:54;;;;;;;53.22;25.50;;;2.80;90.50;;;0.01;94.62;101036.41;4968680;28;20478;-84
2022/03/05 00:28:21;;;;;;;55.55;25.77;;;2.80;90.50;;;-0.07;94.64;101044.94;4966792;28;20417;-84
2022/03/05 00:30:50;;;;;;;54.95;25.73;;;2.80;90.60;;;-0.12;94.86;101041.72;4972960;28;20121;-84
2022/03/05 00:33:19;;;;;;;54.45;25.83;;;2.70;90.50;;;-0.16;94.60;101042.88;4970942;28;20148;-84
2022/03/05 00:35:46;;;;;;;54.60;25.90;;;2.70;90.50;;;-0.31;95.03;101044.75;4954349;28;20413;-85
2022/03/05 00:38:14;;;;;;;52.67;24.55;;;2.70;90.50;;;-0.38;95.74;101036.28;4954223;28;20126;-84
2022/03/05 00:40:41;;;;;;;56.90;25.45;;;2.60;90.50;;;-0.44;95.84;101045.56;4972845;28;20121;-85
2022/03/05 00:43:08;;;;;;;60.40;26.02;;;2.60;90.50;;;-0.46;96.15;101038.59;4973541;28;20047;-85
2022/03/05 00:45:37;;;;;;;53.20;25.15;;;2.50;90.60;;;-0.50;95.63;101043.28;4954611;28;20051;-84
2022/03/05 00:48:07;;;;;;;55.97;25.60;;;2.50;90.60;;;-0.56;96.15;101035.66;4965272;28;20046;-85
2022/03/05 00:50:34;;;;;;;55.33;25.75;;;2.50;90.70;;;-0.55;96.73;101040.06;4954681;28;20134;-85
2022/03/05 00:53:01;;;;;;;55.50;25.98;;;2.50;90.90;;;-0.44;96.61;101039.34;4954232;28;20501;-84
2022/03/05 00:55:29;;;;;;;66.50;28.20;;;2.50;91.30;;;-0.44;96.86;101042.03;4969502;28;20050;-84
2022/03/05 00:57:56;;;;;;;55.13;25.77;;;2.40;91.10;;;-0.44;96.52;101034.88;4973524;28;20126;-85
2022/03/05 01:00:24;;;;;;;58.55;26.05;;;2.40;91.30;;;-0.42;96.80;101032.97;4967673;28;20060;-85
2022/03/05 01:02:52;;;;;;;56.25;25.40;;;2.40;91.30;;;-0.50;96.44;101024.56;4953176;28;20043;-85
2022/03/05 01:05:20;;;;;;;54.42;24.95;;;2.40;91.20;;;-0.60;96.34;101026.13;4954069;28;20051;-85
2022/03/05 01:07:48;;;;;;;60.03;25.65;;;2.40;91.20;;;-0.65;97.19;101021.09;4953434;28;20057;-85
2022/03/05 01:10:16;;;;;;;59.05;25.58;;;2.30;91.30;;;-0.69;97.16;101021.38;4966362;28;20138;-84
2022/03/05 01:12:43;;;;;;;51.97;24.50;;;2.30;91.30;;;-0.75;97.45;101022.63;4972485;28;20390;-85
2022/03/05 01:15:11;;;;;;;56.40;25.77;;;2.30;91.30;;;-0.83;97.22;101020.47;4959755;28;20039;-85
2022/03/05 01:17:38;;;;;;;56.20;25.30;;;2.30;91.30;;;-0.92;97.47;101020.19;4953667;28;20162;-85
2022/03/05 01:20:07;;;;;;;56.70;24.50;;;2.30;91.20;;;-0.91;97.69;101013.91;4953085;28;20102;-84
2022/03/05 01:22:36;;;;;;;57.85;26.55;;;2.10;91.20;;;-0.86;98.03;101014.47;4953243;28;20082;-84
2022/03/05 01:25:04;;;;;;;59.72;25.55;;;2.20;91.40;;;-0.88;97.84;101011.88;4953490;28;20051;-84
2022/03/05 01:27:32;;;;;;;53.85;25.08;;;2.20;91.50;;;-0.85;97.96;101011.69;4953507;28;20035;-84
2022/03/05 01:29:59;;;;;;;55.83;25.08;;;2.10;91.70;;;-0.88;98.35;101017.22;4970112;28;20101;-84
2022/03/05 01:32:26;;;;;;;59.13;26.55;;;2.10;91.80;;;-0.85;98.30;101008.16;4970362;28;20047;-84
2022/03/05 01:34:53;;;;;;;62.55;26.35;;;2.10;91.90;;;-0.89;97.89;101002.16;4968940;28;20054;-84
2022/03/05 01:37:22;;;;;;;58.92;26.10;;;2.10;91.70;;;-0.88;98.22;101011.88;4967541;28;20055;-85
2022/03/05 01:39:51;;;;;;;61.22;26.52;;;2.10;91.90;;;-0.88;98.00;101006.53;4952403;28;20047;-85
2022/03/05 01:42:20;;;;;;;55.90;24.73;;;2.00;91.80;;;-0.91;98.10;101006.75;4960518;28;20071;-85
2022/03/05 01:44:47;;;;;;;53.75;25.42;;;2.00;91.90;;;-0.94;98.05;101006.09;4952599;28;20102;-85
2022/03/05 01:47:15;;;;;;;63.72;27.33;;;2.00;92.10;;;-0.92;98.42;100999.69;4962866;28;20051;-85
2022/03/05 01:49:42;;;;;;;60.47;25.92;;;2.00;92.00;;;-0.94;98.39;101004.25;4972115;28;20078;-85
2022/03/05 01:52:10;;;;;;;57.22;26.30;;;2.00;92.10;;;-0.96;98.65;101014.19;4962736;28;20036;-84
2022/03/05 01:54:39;;;;;;;58.97;26.60;;;2.00;92.40;;;-0.85;99.43;101006.34;4952664;28;20417;-85
2022/03/05 01:57:11;;;;;;;63.95;27.60;;;2.00;92.60;;;-0.88;99.15;101001.19;4970572;28;20117;-84
2022/03/05 01:59:38;;;;;;;60.70;25.45;;;2.00;92.50;;;-0.91;98.52;101005.91;4971823;28;20117;-84
2022/03/05 02:02:06;;;;;;;61.80;27.42;;;2.00;92.50;;;-0.96;99.14;101002.66;4968842;28;20493;-85
2022/03/05 02:04:33;;;;;;;62.00;27.35;;;2.00;92.50;;;-0.98;99.22;101000.94;4971866;28;20047;-85
2022/03/05 02:07:00;;;;;;;58.92;25.90;;;2.00;92.60;;;-1.01;99.32;101005.59;4956661;28;20130;-85
2022/03/05 02:09:28;;;;;;;58.72;26.48;;;2.00;92.50;;;-0.99;99.52;101009.03;4952490;28;20102;-85
2022/03/05 02:11:56;;;;;;;58.45;25.48;;;1.90;92.80;;;-1.07;99.67;101006.00;4965975;28;20043;-85
2022/03/05 02:14:25;;;;;;;60.38;27.45;;;1.90;92.70;;;-1.08;99.76;101005.16;4971543;28;20137;-84
2022/03/05 02:16:52;;;;;;;55.38;25.83;;;1.90;92.80;;;-1.15;99.69;101005.63;4958542;28;20082;-85
2022/03/05 02:19:20;;;;;;;62.85;27.55;;;1.80;92.60;;;-1.14;100.00;101002.00;4952241;28;20126;-85
2022/03/05 02:21:49;;;;;;;67.25;27.58;;;1.90;92.90;;;-1.13;99.98;101001.06;4953156;28;20142;-85
2022/03/05 02:24:31;;;;;;;57.75;25.90;;;1.80;92.90;;;-1.19;99.64;101002.31;4952662;28;20043;-85
2022/03/05 02:26:59;;;;;;;59.58;26.45;;;1.80;92.90;;;-1.19;100.00;100997.81;4970553;28;20054;-85
2022/03/05 02:29:26;;;;;;;60.47;25.65;;;1.80;92.90;;;-1.24;100.00;100997.25;4968949;28;20038;-84
2022/03/05 02:31:54;;;;;;;63.05;25.90;;;1.80;92.90;;;-1.11;100.00;100991.13;4952009;28;20051;-85
2022/03/05 02:34:22;;;;;;;56.75;26.20;;;1.80;93.30;;;-1.04;100.00;100993.31;4965116;28;20125;-85
2022/03/05 02:36:50;;;;;;;53.28;25.30;;;1.80;93.70;;;-1.08;100.00;100993.63;4971340;28;20043;-85
2022/03/05 02:39:18;;;;;;;64.30;28.33;;;1.70;93.60;;;-1.07;100.00;100995.31;4966196;28;20457;-85
2022/03/05 02:41:45;;;;;;;56.55;25.55;;;1.70;93.80;;;-1.10;99.94;101000.88;4951695;28;20138;-85
2022/03/05 02:44:12;;;;;;;61.60;27.75;;;1.70;93.70;;;-1.13;100.00;101001.91;4956279;28;20093;-85
2022/03/05 02:46:40;;;;;;;65.78;28.23;;;1.70;93.80;;;-1.07;100.00;100989.97;4969653;28;20052;-84
2022/03/05 02:49:07;;;;;;;72.05;26.88;;;1.70;93.90;;;-1.13;100.00;100990.38;4971202;28;20053;-85
2022/03/05 02:51:34;;;;;;;63.75;26.83;;;1.70;93.90;;;-1.13;100.00;100990.38;4965559;28;20075;-85
2022/03/05 02:54:03;;;;;;;59.97;25.52;;;1.80;93.90;;;-1.13;100.00;100979.69;4951834;28;20051;-85
2022/03/05 02:56:30;;;;;;;61.40;26.65;;;1.70;93.80;;;-1.17;100.00;100984.38;4951990;28;20049;-85
2022/03/05 02:58:58;;;;;;;60.65;26.45;;;1.70;93.80;;;-1.19;100.00;100981.78;4952114;28;20051;-85
2022/03/05 03:01:25;;;;;;;56.97;25.75;;;1.70;93.90;;;-1.21;100.00;100989.03;4952338;28;20134;-85
2022/03/05 03:03:52;;;;;;;61.22;25.85;;;1.70;93.90;;;-1.21;100.00;100982.84;4951829;28;20050;-85
2022/03/05 03:06:20;;;;;;;62.25;26.75;;;1.80;94.00;;;-1.26;100.00;100983.13;4952037;28;20185;-85
2022/03/05 03:08:47;;;;;;;61.83;25.88;;;1.60;94.00;;;-1.28;100.00;100981.50;4970854;28;20070;-85
2022/03/05 03:11:15;;;;;;;61.13;25.05;;;1.60;94.00;;;-1.32;100.00;100980.84;4970538;28;20042;-85
2022/03/05 03:13:43;;;;;;;62.25;25.67;;;1.60;94.00;;;-1.30;100.00;100984.28;4970883;28;20074;-85
2022/03/05 03:16:10;;;;;;;55.15;24.15;;;1.60;94.10;;;-1.28;100.00;100981.50;4968345;28;20086;-85
2022/03/05 03:18:37;;;;;;;58.35;25.20;;;1.60;94.10;;;-1.26;100.00;100980.44;4970887;28;20263;-85
2022/03/05 03:21:04;;;;;;;59.50;24.27;;;1.60;94.20;;;-1.26;100.00;100975.13;4952074;28;20407;-85
2022/03/05 03:23:32;;;;;;;60.05;25.08;;;1.60;94.10;;;-1.27;100.00;100978.75;4951737;28;20039;-85
2022/03/05 03:25:59;;;;;;;56.08;24.80;;;1.60;94.00;;;-1.24;100.00;100977.69;4970195;28;20096;-85
2022/03/05 03:28:27;;;;;;;56.70;24.48;;;1.60;94.20;;;-1.24;100.00;100973.22;4974923;28;20038;-85
2022/03/05 03:30:55;;;;;;;55.38;24.95;;;1.50;94.20;;;-1.27;100.00;100967.22;4963136;28;20515;-84
2022/03/05 03:33:22;;;;;;;63.20;26.15;;;1.60;94.20;;;-1.29;100.00;100975.31;4994218;28;20062;-84
2022/03/05 03:35:49;;;;;;;54.35;24.77;;;1.50;94.20;;;-1.27;100.00;100970.75;4994058;28;20053;-84
2022/03/05 03:38:16;;;;;;;56.80;24.95;;;1.50;94.20;;;-1.29;100.00;100970.00;4984923;28;20433;-85
2022/03/05 03:40:44;;;;;;;56.70;24.15;;;1.50;94.30;;;-1.36;100.00;100967.81;4960080;28;20113;-85
2022/03/05 03:43:11;;;;;;;54.58;24.33;;;1.50;94.10;;;-1.39;100.00;100969.72;4955175;28;20043;-85
2022/03/05 03:45:40;;;;;;;58.22;25.17;;;1.50;94.30;;;-1.36;100.00;100981.16;4954833;28;20429;-85
2022/03/05 03:48:07;;;;;;;60.67;25.65;;;1.50;94.40;;;-1.38;100.00;100984.75;4968844;28;20039;-85
2022/03/05 03:50:35;;;;;;;57.70;24.20;;;1.50;94.40;;;-1.36;100.00;100976.66;4995108;23;20132;-87
2022/03/05 03:53:02;;;;;;;58.60;25.42;;;1.50;94.50;;;-1.34;100.00;100988.09;5024551;28;20043;-87
2022/03/05 03:55:29;;;;;;;59.00;24.55;;;1.40;94.50;;;-1.39;100.00;100995.53;5027226;28;20045;-86
2022/03/05 03:57:57;;;;;;;57.05;25.20;;;1.40;94.60;;;-1.41;100.00;100997.44;5032580;28;20055;-86
2022/03/05 04:00:24;;;;;;;61.55;24.70;;;1.40;94.60;;;-1.41;100.00;100997.44;5027699;28;20120;-86
2022/03/05 04:02:52;;;;;;;61.17;25.08;;;1.40;94.70;;;-1.43;100.00;101004.69;5012369;28;20777;-86
2022/03/05 04:05:20;;;;;;;57.92;24.25;;;1.40;94.60;;;-1.38;100.00;100994.59;5012767;28;20038;-86
2022/03/05 04:10:32;;;;;;;55.08;24.00;;;1.40;95.00;;;-1.44;100.00;100995.81;5012372;28;20041;-86
2022/03/05 04:12:59;;;;;;;59.25;24.42;;;1.40;94.80;;;-1.46;100.00;101003.06;5012077;28;20149;-86
2022/03/05 04:15:27;;;;;;;61.88;25.17;;;1.40;94.90;;;-1.47;100.00;101003.16;5012474;28;20426;-86
2022/03/05 04:17:55;;;;;;;56.85;24.60;;;1.40;94.80;;;-1.49;100.00;100999.72;5012329;28;20049;-86
2022/03/05 04:20:23;;;;;;;62.90;24.80;;;1.30;94.80;;;-1.49;100.00;100991.72;5011964;28;20045;-86
2022/03/05 04:22:50;;;;;;;53.80;23.35;;;1.30;94.90;;;-1.49;100.00;100989.91;5012203;28;20135;-87
2022/03/05 04:25:18;;;;;;;54.00;23.98;;;1.40;94.80;;;-1.49;100.00;100999.72;5012320;28;20041;-86
2022/03/05 04:27:45;;;;;;;51.15;21.88;;;1.30;94.70;;;-1.51;100.00;100997.16;5012266;28;20049;-87
2022/03/05 04:30:13;;;;;;;57.17;23.25;;;1.30;94.80;;;-1.52;100.00;100997.25;5011403;28;20073;-86
2022/03/05 04:32:41;;;;;;;53.60;23.30;;;1.30;94.80;;;-1.52;100.00;101002.59;5011789;28;20054;-86
2022/03/05 04:35:10;;;;;;;56.25;23.55;;;1.30;94.60;;;-1.54;100.00;101001.81;5012151;28;20065;-86
2022/03/05 04:37:38;;;;;;;52.53;22.75;;;1.30;94.40;;;-1.59;100.00;101000.31;5010384;28;20049;-86
2022/03/05 04:40:07;;;;;;;59.28;24.75;;;1.30;94.50;;;-1.57;100.00;101003.72;5011743;28;20080;-86
2022/03/05 04:42:35;;;;;;;53.00;22.02;;;1.30;94.60;;;-1.59;100.00;101000.31;5012000;28;20072;-87
2022/03/05 04:45:05;;;;;;;50.92;22.70;;;1.30;94.70;;;-1.67;100.00;101002.59;5012175;28;20042;-86
2022/03/05 04:47:32;;;;;;;57.40;23.25;;;1.30;94.40;;;-1.68;100.00;100998.19;4993951;28;20096;-87
2022/03/05 04:49:59;;;;;;;54.75;22.45;;;1.30;94.40;;;-1.72;100.00;101010.00;4993806;28;20416;-86
2022/03/05 04:52:28;;;;;;;50.88;23.02;;;1.20;94.30;;;-1.69;100.00;101009.84;5011483;28;20144;-87
2022/03/05 04:54:55;;;;;;;59.97;25.05;;;1.20;94.40;;;-1.71;100.00;101011.75;5011662;28;20038;-86
2022/03/05 04:57:24;;;;;;;60.45;23.40;;;1.20;94.20;;;-1.71;100.00;101011.75;5011262;28;20515;-87
2022/03/05 04:59:51;;;;;;;56.80;22.73;;;1.20;94.40;;;-1.68;100.00;101010.69;5011458;28;20503;-86
2022/03/05 05:02:19;;;;;;;53.97;23.92;;;1.20;94.60;;;-1.72;100.00;101003.81;5011154;28;20117;-86
2022/03/05 05:04:46;;;;;;;58.13;22.70;;;1.20;94.60;;;-1.75;100.00;101012.88;5011527;28;20108;-87
2022/03/05 05:07:15;;;;;;;54.63;22.58;;;1.10;94.50;;;-1.70;100.00;101007.25;5011323;28;20046;-86
2022/03/05 05:09:44;;;;;;;60.35;22.98;;;1.10;94.60;;;-1.69;100.00;101009.84;5011623;28;20135;-86
2022/03/05 05:12:11;;;;;;;62.25;24.23;;;1.10;94.60;;;-1.74;100.00;101011.06;5010794;28;20049;-86
2022/03/05 05:14:38;;;;;;;51.95;22.02;;;1.10;94.50;;;-1.71;100.00;101002.84;4993797;28;20089;-86
2022/03/05 05:17:06;;;;;;;49.30;20.92;;;1.10;94.70;;;-1.73;100.00;101002.09;5011419;28;20117;-85
2022/03/05 05:19:33;;;;;;;54.45;21.80;;;1.10;94.70;;;-1.74;100.00;101001.25;5011247;28;20046;-86
2022/03/05 05:22:04;;;;;;;58.08;22.42;;;1.10;94.70;;;-1.80;100.00;101005.13;5010716;28;20563;-83
2022/03/05 05:24:33;;;;;;;55.05;22.83;;;1.10;94.60;;;-1.79;100.00;101014.00;4992839;28;20141;-84
2022/03/05 05:27:03;;;;;;;56.10;22.88;;;1.00;94.50;;;-1.78;100.00;101010.38;5010321;28;20519;-88
2022/03/05 05:29:30;;;;;;;52.17;22.08;;;1.10;94.60;;;-1.86;100.00;101018.84;5011085;28;20519;-88
2022/03/05 05:31:58;;;;;;;57.05;23.10;;;1.00;94.30;;;-1.89;100.00;101004.84;5007132;28;20112;-88
2022/03/05 05:34:26;;;;;;;59.40;23.20;;;1.10;94.40;;;-1.94;100.00;101012.25;5010691;28;20053;-88
2022/03/05 05:36:53;;;;;;;52.28;22.35;;;1.00;94.20;;;-2.01;100.00;101015.28;4993380;28;20419;-89
2022/03/05 05:39:20;;;;;;;58.78;22.67;;;1.00;94.20;;;-2.05;100.00;101013.75;5010896;28;20095;-88
2022/03/05 05:41:48;;;;;;;56.38;23.83;;;1.00;94.20;;;-2.04;100.00;101020.78;5010735;28;20053;-88
2022/03/05 05:44:17;;;;;;;57.30;22.75;;;0.90;94.30;;;-2.05;100.00;101016.44;5010788;28;20141;-88
2022/03/05 05:46:44;;;;;;;55.03;22.75;;;0.90;94.40;;;-2.02;100.00;101010.94;5010915;28;20412;-89
2022/03/05 05:49:11;;;;;;;53.53;21.85;;;0.90;94.50;;;-2.07;100.00;101014.81;5010157;28;20076;-88
2022/03/05 05:51:39;;;;;;;50.88;21.92;;;0.90;94.30;;;-2.08;100.00;101018.41;5004333;28;20053;-89
2022/03/05 05:54:07;;;;;;;55.35;21.52;;;0.90;94.30;;;-2.07;100.00;101021.00;5007486;28;20121;-87
2022/03/05 05:56:35;;;;;;;54.20;22.33;;;0.90;94.60;;;-2.18;100.00;101020.78;5010894;28;20053;-86
2022/03/05 05:59:04;;;;;;;53.72;21.77;;;0.80;94.50;;;-2.26;100.00;101025.69;5010363;28;20046;-88
2022/03/05 06:01:33;;;;;;;56.20;22.45;;;0.80;94.40;;;-2.26;100.00;101029.22;5010152;28;20129;-88
2022/03/05 06:04:00;;;;;;;56.97;22.30;;;0.70;94.60;;;-2.30;100.00;101022.34;5010255;28;20411;-87
2022/03/05 06:06:27;;;;;;;52.75;23.05;;;0.70;94.50;;;-2.35;100.00;101029.75;5010402;28;20684;-89
2022/03/05 06:08:54;;;;;;;55.47;21.63;;;0.70;94.40;;;-2.38;100.00;101033.47;5010226;28;20315;-87
2022/03/05 06:11:22;;;;;;;58.83;23.20;;;0.70;94.40;;;-2.32;100.00;101031.38;5010018;28;20849;-88
2022/03/05 06:13:49;;;;;;;56.35;22.98;;;0.60;94.50;;;-2.34;100.00;101028.81;5010301;28;20092;-85
2022/03/05 06:16:16;;;;;;;57.28;23.23;;;0.70;94.50;;;-2.32;100.00;101023.38;4992339;28;20069;-85
2022/03/05 06:18:45;;;;;;;54.03;21.70;;;0.60;94.50;;;-2.34;100.00;101023.47;5010274;28;20053;-86
2022/03/05 06:21:12;;;;;;;53.30;21.17;;;0.60;94.60;;;-2.32;100.00;101026.91;5010013;28;20080;-93
2022/03/05 06:23:40;;;;;;;59.20;23.02;;;0.60;94.70;;;-2.31;100.00;101017.97;4992581;28;20060;-87
2022/03/05 06:26:07;;;;;;;55.78;21.42;;;0.60;94.90;;;-2.39;100.00;101021.06;5010243;28;20519;-87
2022/03/05 06:28:35;;;;;;;53.67;21.17;;;0.60;94.80;;;-2.37;100.00;101021.84;5009821;28;20130;-86
2022/03/05 06:31:04;;;;;;;54.42;22.55;;;0.60;95.00;;;-2.34;100.00;101022.59;5009950;28;20056;-84
2022/03/05 06:33:31;;;;;;;54.70;21.67;;;0.60;95.00;;;-2.39;100.00;101023.72;5009713;28;20049;-86
2022/03/05 06:35:59;;;;;;;51.28;20.92;;;0.60;95.10;;;-2.35;100.00;101024.41;5010187;28;20133;-86
2022/03/05 06:38:27;;;;;;;58.88;22.58;;;0.60;95.20;;;-2.34;100.00;101023.47;5009589;28;20108;-84
2022/03/05 06:40:54;;;;;;;53.20;21.08;;;0.60;95.30;;;-2.33;100.00;101024.34;5009341;28;20038;-82
2022/03/05 06:43:22;;;;;;;50.25;20.92;;;0.60;95.40;;;-2.27;100.00;101014.16;5010178;28;20121;-84
2022/03/05 06:45:49;;;;;;;52.40;21.58;;;0.60;95.50;;;-2.21;100.00;101026.28;5009924;28;20488;-86
2022/03/05 06:48:17;;;;;;;51.03;20.63;;;0.60;95.70;;;-2.15;100.00;101023.28;5009903;28;20053;-84
2022/03/05 06:50:44;;;;;;;56.97;21.17;;;0.60;95.80;;;-2.05;100.00;101032.44;4993829;28;20129;-85
2022/03/05 06:53:13;;;;;;;54.17;22.67;;;0.70;96.10;;;-2.00;100.00;101034.81;5010157;28;20034;-82
2022/03/05 06:55:40;;;;;;;54.45;21.23;;;0.70;96.20;;;-1.92;100.00;101031.69;5009715;28;20121;-86
2022/03/05 06:58:08;;;;;;;56.05;22.55;;;0.70;96.20;;;-1.88;100.00;101033.25;5010228;28;20579;-86
2022/03/05 07:00:36;;;;;;;53.65;21.50;;;0.70;96.10;;;-1.79;100.00;101030.00;5008335;28;20041;-86
2022/03/05 07:03:03;;;;;;;57.17;21.48;;;0.80;96.10;;;-1.75;100.00;101026.22;5009651;28;20587;-85
2022/03/05 07:05:30;;;;;;;55.47;21.65;;;0.90;96.30;;;-1.74;100.00;101037.75;5009496;28;20069;-85
2022/03/05 07:07:58;;;;;;;52.65;21.73;;;0.90;96.30;;;-1.74;100.00;101035.06;5009691;28;20104;-86
2022/03/05 07:10:26;;;;;;;58.63;22.40;;;0.90;96.50;;;-1.73;100.00;101029.66;5009512;28;20467;-84
2022/03/05 07:12:53;;;;;;;53.08;21.35;;;0.90;96.60;;;-1.65;100.00;101031.84;4991721;28;20084;-86
2022/03/05 07:15:21;;;;;;;52.63;22.55;;;0.90;96.70;;;-1.63;100.00;101043.28;4989445;28;20420;-86
2022/03/05 07:17:50;;;;;;;55.60;21.80;;;1.20;96.80;;;-1.53;100.00;101048.94;4989940;28;20306;-86
2022/03/05 07:20:17;;;;;;;55.13;22.35;;;1.00;96.80;;;-1.43;100.00;101042.06;4988156;28;20073;-84
2022/03/05 07:22:45;;;;;;;54.75;22.65;;;1.10;96.90;;;-1.27;100.00;101048.19;4989691;28;20066;-83
2022/03/05 07:25:14;;;;;;;54.90;21.85;;;1.20;96.90;;;-1.14;100.00;101047.41;4989751;28;20039;-84
2022/03/05 07:27:43;;;;;;;57.80;22.50;;;1.20;97.10;;;-1.01;100.00;101053.69;4990061;28;20042;-84
2022/03/05 07:30:11;;;;;;;54.42;22.70;;;1.30;97.30;;;-0.90;100.00;101048.53;4991247;28;20038;-84
2022/03/05 07:32:39;;;;;;;57.03;24.08;;;1.30;97.50;;;-0.78;100.00;101049.59;5009515;28;20126;-85
2022/03/05 07:35:07;;;;;;;56.97;23.15;;;1.40;97.60;;;-0.72;100.00;101045.63;5009273;28;20050;-85
2022/03/05 07:37:35;;;;;;;59.35;23.92;;;1.40;97.60;;;-0.57;100.00;101050.00;5009641;28;20049;-84
2022/03/05 07:40:05;;;;;;;56.83;23.95;;;1.50;97.80;;;-0.43;100.00;101055.28;5009331;28;20050;-84
2022/03/05 07:42:32;;;;;;;56.30;24.88;;;1.60;97.80;;;-0.27;100.00;101048.94;5009747;28;20128;-83
2022/03/05 07:45:01;;;;;;;56.95;24.27;;;1.60;97.70;;;-0.14;100.00;101055.19;5009389;28;20124;-82
2022/03/05 07:47:28;;;;;;;56.22;23.80;;;1.70;97.90;;;-0.05;100.00;101054.56;5009208;28;20144;-80
2022/03/05 07:49:56;;;;;;;51.67;22.33;;;1.70;97.90;;;0.09;100.00;101053.63;5006457;28;20080;-82
2022/03/05 07:52:23;;;;;;;55.80;23.65;;;2.10;98.00;;;0.23;100.00;101058.06;4989678;28;20050;-81
2022/03/05 07:54:50;;;;;;;51.13;22.13;;;1.90;97.70;;;0.36;99.05;101058.94;4994594;28;20467;-84
2022/03/05 07:57:17;;;;;;;49.63;22.38;;;2.00;97.40;;;0.50;98.88;101068.69;5008837;28;20046;-83
2022/03/05 07:59:45;;;;;;;50.25;22.90;;;2.00;97.30;;;0.66;97.52;101065.81;5009187;28;20048;-83
2022/03/05 08:02:15;;;;;;;52.10;21.55;;;2.10;97.10;;;0.86;96.93;101071.59;5009081;28;20068;-83
2022/03/05 08:04:43;;;;;;;48.40;22.05;;;2.20;96.80;;;1.02;96.02;101071.38;5009195;28;20042;-83
2022/03/05 08:07:10;;;;;;;51.25;21.58;;;2.40;96.40;;;1.16;95.07;101072.09;5009385;28;20111;-83
2022/03/05 08:09:38;;;;;;;48.58;20.80;;;2.50;96.20;;;1.28;94.41;101069.50;4991263;28;20482;-83
2022/03/05 08:12:06;;;;;;;49.28;21.58;;;2.60;95.80;;;1.31;94.37;101077.31;4998699;28;20042;-83
2022/03/05 08:14:34;;;;;;;55.28;22.77;;;2.70;96.00;;;1.34;93.95;101083.31;4992897;28;20046;-83
2022/03/05 08:17:01;;;;;;;50.92;21.67;;;2.70;96.00;;;1.42;93.99;101077.38;4993212;28;20703;-83
2022/03/05 08:19:30;;;;;;;49.60;22.75;;;2.80;95.50;;;1.51;93.71;101084.78;4992829;28;20046;-83
2022/03/05 08:21:57;;;;;;;48.85;21.83;;;2.90;95.50;;;1.56;93.17;101082.63;4992847;28;20058;-83
2022/03/05 08:24:24;;;;;;;48.70;21.20;;;3.00;95.30;;;1.65;93.61;101080.22;4992854;28;20092;-84
2022/03/05 08:26:51;;;;;;;45.33;20.17;;;3.10;94.80;;;1.71;92.30;101085.13;5007516;28;20044;-83
2022/03/05 08:29:19;;;;;;;45.38;19.67;;;3.10;94.00;;;1.76;92.23;101082.97;5012364;28;20080;-84
2022/03/05 08:31:46;;;;;;;46.60;19.33;;;3.20;93.60;;;1.85;89.71;101093.03;5012078;28;20046;-84
2022/03/05 08:34:13;;;;;;;40.42;18.60;;;3.30;93.20;;;1.87;89.96;101082.19;5012274;28;20197;-83
2022/03/05 08:36:42;;;;;;;46.10;19.67;;;3.40;92.30;;;1.97;88.59;101085.88;5011653;28;20092;-84
2022/03/05 08:39:09;;;;;;;43.60;19.77;;;3.50;92.10;;;2.04;89.16;101075.56;5011573;28;20168;-84
2022/03/05 08:41:37;;;;;;;41.30;19.20;;;3.60;91.80;;;2.10;89.15;101069.72;5011359;28;20046;-82
2022/03/05 08:44:05;;;;;;;46.42;19.25;;;3.60;91.20;;;2.17;89.20;101079.03;5010852;28;20042;-88
2022/03/05 08:46:33;;;;;;;42.40;19.67;;;3.70;91.10;;;2.24;89.03;101080.25;5011605;28;20048;-86
2022/03/05 08:49:00;;;;;;;47.92;20.08;;;3.70;91.10;;;2.33;87.62;101081.38;5011764;28;20434;-81
2022/03/05 08:51:27;;;;;;;43.05;19.60;;;3.80;90.70;;;2.42;88.35;101077.13;4993466;28;20042;-82
2022/03/05 08:53:55;;;;;;;43.30;18.70;;;3.90;90.40;;;2.45;87.15;101077.75;5011654;28;20049;-84
2022/03/05 08:56:23;;;;;;;47.63;19.88;;;3.90;90.10;;;2.50;87.45;101072.88;5010929;28;20038;-83
2022/03/05 08:58:50;;;;;;;39.63;18.90;;;3.90;89.80;;;2.52;86.19;101070.94;5011801;28;20565;-86
2022/03/05 09:01:18;;;;;;;41.90;19.15;;;4.00;89.40;;;2.61;85.19;101071.19;5011181;28;20065;-82
2022/03/05 09:03:45;;;;;;;43.28;19.80;;;4.10;89.40;;;2.68;84.96;101069.72;5011251;28;20046;-83
2022/03/05 09:06:12;;;;;;;44.88;19.33;;;4.20;89.30;;;2.73;85.73;101065.72;5010289;28;20038;-82
2022/03/05 09:08:40;;;;;;;42.63;18.52;;;4.20;89.20;;;2.76;84.32;101063.75;5011376;28;20081;-83
2022/03/05 09:11:09;;;;;;;41.25;18.27;;;4.30;89.00;;;2.82;84.32;101065.94;5010911;28;20066;-82
2022/03/05 09:13:36;;;;;;;40.78;18.58;;;4.30;88.80;;;2.88;84.54;101060.97;5011516;28;20052;-82
2022/03/05 09:16:04;;;;;;;39.58;19.83;;;4.40;88.90;;;2.95;83.91;101066.69;5011244;28;20133;-81
2022/03/05 09:18:31;;;;;;;41.72;20.13;;;4.50;88.70;;;2.96;83.36;101064.88;4992728;28;20038;-80
2022/03/05 09:20:58;;;;;;;40.70;19.38;;;4.50;88.50;;;2.98;84.11;101066.47;5010544;28;20077;-83
2022/03/05 09:23:25;;;;;;;43.50;20.63;;;4.50;88.30;;;3.03;83.33;101066.97;5010440;28;20042;-82
2022/03/05 09:25:53;;;;;;;43.70;20.00;;;4.50;88.40;;;3.09;82.96;101074.53;5007137;28;20070;-83
2022/03/05 09:28:21;;;;;;;43.58;19.77;;;4.60;88.40;;;3.12;82.58;101071.59;5005619;28;20504;-81
2022/03/05 09:30:48;;;;;;;41.95;18.85;;;4.60;87.90;;;3.16;83.21;101064.16;5010687;28;20053;-83
2022/03/05 09:33:16;;;;;;;39.97;18.40;;;4.70;88.10;;;3.22;82.03;101066.34;5011239;28;20046;-86
2022/03/05 09:35:43;;;;;;;42.45;19.50;;;4.70;88.00;;;3.27;80.85;101065.97;5010762;28;20038;-86
2022/03/05 09:38:11;;;;;;;40.00;18.30;;;4.80;87.70;;;3.32;80.91;101069.16;5009979;28;20048;-85
2022/03/05 09:40:38;;;;;;;40.88;19.20;;;4.80;87.20;;;3.40;80.92;101072.06;5009651;28;20569;-85
2022/03/05 09:43:05;;;;;;;37.10;18.15;;;4.80;87.10;;;3.46;81.34;101068.88;5001539;28;20114;-86
2022/03/05 09:45:38;;;;;;;40.70;18.92;;;4.90;87.10;;;3.48;80.12;101064.25;5008379;28;20103;-84
2022/03/05 09:48:06;;;;;;;38.88;18.48;;;4.90;86.60;;;3.55;79.34;101059.19;5010628;28;20042;-83
2022/03/05 09:50:34;;;;;;;37.10;17.80;;;5.00;86.10;;;3.61;79.07;101064.06;5026908;22;20053;-85
2022/03/05 09:53:01;;;;;;;39.55;18.48;;;5.10;86.20;;;3.67;79.52;101057.31;4990292;28;20558;-84
2022/03/05 09:55:29;;;;;;;38.58;17.77;;;5.10;86.00;;;3.70;78.60;101073.25;4990829;28;20512;-84
2022/03/05 09:57:57;;;;;;;40.80;17.92;;;5.20;85.60;;;3.81;79.47;101070.50;4990693;28;20045;-86
2022/03/05 10:00:24;;;;;;;44.53;18.63;;;5.20;85.80;;;3.82;78.36;101061.44;4990632;28;20381;-84
2022/03/05 10:02:53;;;;;;;41.67;18.20;;;5.20;85.60;;;3.90;78.21;101069.75;4990872;28;20500;-87
2022/03/05 10:05:24;;;;;;;40.05;18.00;;;5.30;85.70;;;3.98;76.07;101065.53;4989582;28;20121;-85
2022/03/05 10:08:07;;;;;;;;;;;5.40;84.90;;;4.03;77.24;101064.19;4988883;28;20454;-85
2022/03/05 10:10:43;;;;;;;36.17;17.02;;;5.40;84.40;;;4.11;76.59;101061.72;4989663;28;19928;-86